createdAt,value
2018-08-03T00:02:02.721Z,20.83
2018-08-03T00:04:31.366Z,18.87
2018-08-03T00:07:00.028Z,18.27
2018-08-03T00:09:28.604Z,19.90
2018-08-03T00:11:57.214Z,23.97
2018-08-03T00:14:25.902Z,19.17
2018-08-03T00:16:54.547Z,18.17
2018-08-03T00:19:23.159Z,20.30
2018-08-03T00:21:51.773Z,19.30
2018-08-03T00:24:20.326Z,21.40
2018-08-03T00:26:48.961Z,18.87
2018-08-03T00:29:17.550Z,18.83
2018-08-03T00:31:46.205Z,18.10
2018-08-03T00:34:14.863Z,19.73
2018-08-03T00:36:44.554Z,19.13
2018-08-03T00:39:13.168Z,20.60
2018-08-03T00:41:41.426Z,18.97
2018-08-03T00:44:10.064Z,19.97
2018-08-03T00:46:38.584Z,22.63
2018-08-03T00:49:07.233Z,19.53
2018-08-03T00:51:35.897Z,20.37
2018-08-03T00:54:04.803Z,19.73
2018-08-03T00:56:33.344Z,21.53
2018-08-03T00:59:01.921Z,19.80
2018-08-03T01:01:30.527Z,18.30
2018-08-03T01:03:59.089Z,20.50
2018-08-03T01:06:27.623Z,18.97
2018-08-03T01:08:56.209Z,20.67
2018-08-03T01:11:24.833Z,19.40
2018-08-03T01:13:53.435Z,18.60
2018-08-03T01:16:22.322Z,20.47
2018-08-03T01:18:50.990Z,19.67
2018-08-03T01:21:19.593Z,20.00
2018-08-03T01:23:48.188Z,21.23
2018-08-03T01:26:16.757Z,20.67
2018-08-03T01:28:45.401Z,22.10
2018-08-03T01:31:13.979Z,20.80
2018-08-03T01:33:42.651Z,22.97
2018-08-03T01:36:11.209Z,21.40
2018-08-03T01:38:39.828Z,19.77
2018-08-03T01:41:08.397Z,20.03
2018-08-03T01:43:36.996Z,21.07
2018-08-03T01:46:05.941Z,18.77
2018-08-03T01:48:34.552Z,19.43
2018-08-03T01:51:03.166Z,21.90
2018-08-03T01:53:31.781Z,20.70
2018-08-03T01:56:00.358Z,21.80
2018-08-03T01:58:28.955Z,23.20
2018-08-03T02:00:57.596Z,22.53
2018-08-03T02:03:26.298Z,21.10
2018-08-03T02:05:54.887Z,25.37
2018-08-03T02:08:23.457Z,24.83
2018-08-03T02:10:52.083Z,22.10
2018-08-03T02:13:20.739Z,19.80
2018-08-03T02:15:49.312Z,21.60
2018-08-03T02:18:18.473Z,21.53
2018-08-03T02:20:47.048Z,22.80
2018-08-03T02:23:15.683Z,21.70
2018-08-03T02:25:44.280Z,22.40
2018-08-03T02:28:12.877Z,20.87
2018-08-03T02:30:41.499Z,21.13
2018-08-03T02:33:10.123Z,22.43
2018-08-03T02:35:38.699Z,21.03
2018-08-03T02:38:07.335Z,21.23
2018-08-03T02:40:35.998Z,21.33
2018-08-03T02:43:04.722Z,23.30
2018-08-03T02:45:33.416Z,22.50
2018-08-03T02:48:01.990Z,21.10
2018-08-03T02:50:30.565Z,22.63
2018-08-03T02:52:59.174Z,22.20
2018-08-03T02:55:27.792Z,22.80
2018-08-03T02:57:56.408Z,22.53
2018-08-03T03:00:25.473Z,23.30
2018-08-03T03:02:54.026Z,23.00
2018-08-03T03:05:22.679Z,23.80
2018-08-03T03:07:51.265Z,23.37
2018-08-03T03:10:19.895Z,24.90
2018-08-03T03:12:48.481Z,22.00
2018-08-03T03:15:17.122Z,23.07
2018-08-03T03:17:45.727Z,21.17
2018-08-03T03:20:14.294Z,21.17
2018-08-03T03:22:42.903Z,23.50
2018-08-03T03:25:11.597Z,23.67
2018-08-03T03:27:40.185Z,25.20
2018-08-03T03:30:09.347Z,24.83
2018-08-03T03:32:38.057Z,24.97
2018-08-03T03:35:06.701Z,25.30
2018-08-03T03:37:34.918Z,23.17
2018-08-03T03:40:03.649Z,28.10
2018-08-03T03:42:32.308Z,24.73
2018-08-03T03:45:00.970Z,24.53
2018-08-03T03:47:29.594Z,25.37
2018-08-03T03:49:58.150Z,23.73
2018-08-03T03:52:26.698Z,23.60
2018-08-03T03:54:55.402Z,26.50
2018-08-03T03:57:24.039Z,23.87
2018-08-03T03:59:52.625Z,22.97
2018-08-03T04:02:21.289Z,26.80
2018-08-03T04:04:49.939Z,23.77
2018-08-03T04:07:18.457Z,23.20
2018-08-03T04:09:47.104Z,22.17
2018-08-03T04:12:15.695Z,23.27
2018-08-03T04:14:44.281Z,25.20
2018-08-03T04:17:12.892Z,22.43
2018-08-03T04:19:41.428Z,24.93
2018-08-03T04:22:10.116Z,21.97
2018-08-03T04:24:38.833Z,23.67
2018-08-03T04:27:07.437Z,24.47
2018-08-03T04:29:36.073Z,23.33
2018-08-03T04:32:04.653Z,23.60
2018-08-03T04:34:33.283Z,23.40
2018-08-03T04:37:01.882Z,24.77
2018-08-03T04:39:30.505Z,24.90
2018-08-03T04:41:59.063Z,23.50
2018-08-03T04:44:27.735Z,25.47
2018-08-03T04:46:56.335Z,28.27
2018-08-03T04:49:25.027Z,23.60
2018-08-03T04:51:53.644Z,26.83
2018-08-03T04:54:22.309Z,24.23
2018-08-03T04:56:50.887Z,22.57
2018-08-03T04:59:19.174Z,22.80
2018-08-03T05:01:47.708Z,22.30
2018-08-03T05:04:16.353Z,23.43
2018-08-03T05:06:45.042Z,21.03
2018-08-03T05:09:13.669Z,22.33
2018-08-03T05:11:42.269Z,24.60
2018-08-03T05:14:12.973Z,23.10
2018-08-03T05:16:41.633Z,21.40
2018-08-03T05:19:10.282Z,22.70
2018-08-03T05:21:38.837Z,20.37
2018-08-03T05:24:07.436Z,22.70
2018-08-03T05:26:36.026Z,24.23
2018-08-03T05:29:04.704Z,21.80
2018-08-03T05:31:33.313Z,23.50
2018-08-03T05:34:01.921Z,24.30
2018-08-03T05:36:30.482Z,26.63
2018-08-03T05:38:59.093Z,25.10
2018-08-03T05:41:27.618Z,28.40
2018-08-03T05:43:56.161Z,24.30
2018-08-03T05:46:24.778Z,28.20
2018-08-03T05:48:53.400Z,31.47
2018-08-03T05:51:22.023Z,24.53
2018-08-03T05:53:50.644Z,22.80
2018-08-03T05:56:19.233Z,23.33
2018-08-03T05:58:47.818Z,26.80
2018-08-03T06:01:16.510Z,23.40
2018-08-03T06:03:45.128Z,28.30
2018-08-03T06:06:13.889Z,26.50
2018-08-03T06:08:42.627Z,23.83
2018-08-03T06:11:11.249Z,26.50
2018-08-03T06:13:39.853Z,24.90
2018-08-03T06:16:08.520Z,26.80
2018-08-03T06:18:37.111Z,25.23
2018-08-03T06:21:05.731Z,29.93
2018-08-03T06:23:34.261Z,29.83
2018-08-03T06:26:02.910Z,28.07
2018-08-03T06:28:31.620Z,23.73
2018-08-03T06:31:00.285Z,29.37
2018-08-03T06:33:28.864Z,25.10
2018-08-03T06:35:57.707Z,25.60
2018-08-03T06:38:26.416Z,23.73
2018-08-03T06:40:55.003Z,24.17
2018-08-03T06:43:23.599Z,21.80
2018-08-03T06:45:52.194Z,26.40
2018-08-03T06:48:20.868Z,23.50
2018-08-03T06:50:49.436Z,25.53
2018-08-03T06:53:18.092Z,22.97
2018-08-03T06:55:46.692Z,22.30
2018-08-03T06:58:14.926Z,23.57
2018-08-03T07:00:43.563Z,23.87
2018-08-03T07:03:12.235Z,24.00
2018-08-03T07:05:40.907Z,27.60
2018-08-03T07:08:09.451Z,22.30
2018-08-03T07:10:38.086Z,24.50
2018-08-03T07:13:06.690Z,23.43
2018-08-03T07:15:35.401Z,22.40
2018-08-03T07:18:04.029Z,31.10
2018-08-03T07:20:32.744Z,24.30
2018-08-03T07:23:01.231Z,21.53
2018-08-03T07:25:29.889Z,20.20
2018-08-03T07:27:58.440Z,21.77
2018-08-03T07:30:27.038Z,21.63
2018-08-03T07:32:55.685Z,22.30
2018-08-03T07:35:24.267Z,22.13
2018-08-03T07:37:52.993Z,25.27
2018-08-03T07:40:21.554Z,20.83
2018-08-03T07:42:50.224Z,19.83
2018-08-03T07:45:18.375Z,21.07
2018-08-03T07:47:47.137Z,24.37
2018-08-03T07:50:15.757Z,23.07
2018-08-03T07:52:44.394Z,20.97
2018-08-03T07:55:12.967Z,19.57
2018-08-03T07:57:41.855Z,19.47
2018-08-03T08:00:10.410Z,20.57
2018-08-03T08:02:39.020Z,20.03
2018-08-03T08:05:07.705Z,19.53
2018-08-03T08:07:36.335Z,19.53
2018-08-03T08:10:05.850Z,18.60
2018-08-03T08:12:34.480Z,19.80
2018-08-03T08:15:03.051Z,17.63
2018-08-03T08:17:31.709Z,22.63
2018-08-03T08:20:00.249Z,18.83
2018-08-03T08:22:28.886Z,17.93
2018-08-03T08:24:58.086Z,21.33
2018-08-03T08:27:26.664Z,21.20
2018-08-03T08:29:55.228Z,18.70
2018-08-03T08:32:23.908Z,20.40
2018-08-03T08:34:52.167Z,18.67
2018-08-03T08:37:20.415Z,20.50
2018-08-03T08:39:48.988Z,19.07
2018-08-03T08:42:17.595Z,19.20
2018-08-03T08:44:46.153Z,17.90
2018-08-03T08:47:14.735Z,17.40
2018-08-03T08:49:43.376Z,17.00
2018-08-03T08:52:11.642Z,18.70
2018-08-03T08:54:40.252Z,16.87
2018-08-03T08:57:08.842Z,16.77
2018-08-03T08:59:37.572Z,17.40
2018-08-03T09:02:06.503Z,16.30
2018-08-03T09:04:34.735Z,16.87
2018-08-03T09:07:03.433Z,17.23
2018-08-03T09:09:31.985Z,16.03
2018-08-03T09:12:00.629Z,18.33
2018-08-03T09:14:29.247Z,16.30
2018-08-03T09:16:57.859Z,17.50
2018-08-03T09:19:26.562Z,17.20
2018-08-03T09:21:55.131Z,17.33
2018-08-03T09:24:23.906Z,15.77
2018-08-03T09:26:52.479Z,16.43
2018-08-03T09:29:21.289Z,15.37
2018-08-03T09:31:49.918Z,15.67
2018-08-03T09:34:18.544Z,14.50
2018-08-03T09:36:47.130Z,13.70
2018-08-03T09:39:15.816Z,13.97
2018-08-03T09:41:44.544Z,15.37
2018-08-03T09:44:13.285Z,15.20
2018-08-03T09:46:41.895Z,15.17
2018-08-03T09:49:10.603Z,15.43
2018-08-03T09:51:38.843Z,14.10
2018-08-03T09:54:07.477Z,15.60
2018-08-03T09:56:36.259Z,14.00
2018-08-03T09:59:05.223Z,15.87
2018-08-03T10:01:33.790Z,14.77
2018-08-03T10:04:02.401Z,14.23
2018-08-03T10:06:30.927Z,14.83
2018-08-03T10:08:59.569Z,14.53
2018-08-03T10:11:28.191Z,16.60
2018-08-03T10:13:56.969Z,15.63
2018-08-03T10:16:25.686Z,15.07
2018-08-03T10:18:54.686Z,15.33
2018-08-03T10:21:23.281Z,14.60
2018-08-03T10:23:51.848Z,14.57
2018-08-03T10:26:20.491Z,13.90
2018-08-03T10:28:49.076Z,13.63
2018-08-03T10:31:17.693Z,14.30
2018-08-03T10:33:46.362Z,14.93
2018-08-03T10:36:15.046Z,13.70
2018-08-03T10:38:43.601Z,15.33
2018-08-03T10:41:13.259Z,15.63
2018-08-03T10:43:41.904Z,17.63
2018-08-03T10:46:10.856Z,13.30
2018-08-03T10:48:39.528Z,15.20
2018-08-03T10:51:08.328Z,14.30
2018-08-03T10:53:36.945Z,13.97
2018-08-03T10:56:05.663Z,14.00
2018-08-03T10:58:34.263Z,12.37
2018-08-03T11:01:02.805Z,12.90
2018-08-03T11:03:31.534Z,14.20
2018-08-03T11:06:00.090Z,13.93
2018-08-03T11:08:28.637Z,14.10
2018-08-03T11:10:57.276Z,12.73
2018-08-03T11:13:25.910Z,12.57
2018-08-03T11:15:54.465Z,11.77
2018-08-03T11:18:23.089Z,14.60
2018-08-03T11:20:51.662Z,13.17
2018-08-03T11:23:20.264Z,12.93
2018-08-03T11:25:48.848Z,12.93
2018-08-03T11:28:17.401Z,12.80
2018-08-03T11:30:46.021Z,12.53
2018-08-03T11:33:14.628Z,13.07
2018-08-03T11:35:43.207Z,12.20
2018-08-03T11:38:11.827Z,12.37
2018-08-03T11:40:40.462Z,12.67
2018-08-03T11:43:09.144Z,12.23
2018-08-03T11:45:37.732Z,14.07
2018-08-03T11:48:06.371Z,11.73
2018-08-03T11:50:35.006Z,13.10
2018-08-03T11:53:03.660Z,12.13
2018-08-03T11:55:32.301Z,12.47
2018-08-03T11:58:00.911Z,12.37
2018-08-03T12:00:29.680Z,13.17
2018-08-03T12:02:58.466Z,10.67
2018-08-03T12:05:27.064Z,11.30
2018-08-03T12:07:55.613Z,11.80
2018-08-03T12:10:24.339Z,13.00
2018-08-03T12:12:52.870Z,13.10
2018-08-03T12:15:21.549Z,12.07
2018-08-03T12:17:50.138Z,12.47
2018-08-03T12:20:18.763Z,12.10
2018-08-03T12:22:47.351Z,11.43
2018-08-03T12:25:16.027Z,12.07
2018-08-03T12:27:44.540Z,11.63
2018-08-03T12:30:13.144Z,11.60
2018-08-03T12:32:41.713Z,11.53
2018-08-03T12:35:10.385Z,10.30
2018-08-03T12:37:39.304Z,11.47
2018-08-03T12:40:07.922Z,11.40
2018-08-03T12:42:36.602Z,12.17
2018-08-03T12:45:05.385Z,11.97
2018-08-03T12:47:34.997Z,12.27
2018-08-03T12:50:03.713Z,12.23
2018-08-03T12:52:32.373Z,12.13
2018-08-03T12:55:00.997Z,11.97
2018-08-03T12:57:29.658Z,14.27
2018-08-03T12:59:58.309Z,10.80
2018-08-03T13:02:26.920Z,10.97
2018-08-03T13:04:55.669Z,10.20
2018-08-03T13:07:24.395Z,10.27
2018-08-03T13:09:53.040Z,11.83
2018-08-03T13:12:21.643Z,10.93
2018-08-03T13:14:50.979Z,10.70
2018-08-03T13:17:19.639Z,10.90
2018-08-03T13:19:48.300Z,11.40
2018-08-03T13:22:22.291Z,12.30
2018-08-03T13:24:51.370Z,12.80
2018-08-03T13:27:21.636Z,11.73
2018-08-03T13:29:50.279Z,12.00
2018-08-03T13:32:18.892Z,11.47
2018-08-03T13:34:47.541Z,11.80
2018-08-03T13:37:16.306Z,10.33
2018-08-03T13:39:44.960Z,13.30
2018-08-03T13:42:13.198Z,11.87
2018-08-03T13:44:41.801Z,11.33
2018-08-03T13:47:10.491Z,11.43
2018-08-03T13:49:39.096Z,12.00
2018-08-03T13:52:07.757Z,11.27
2018-08-03T13:54:36.340Z,12.00
2018-08-03T13:57:05.335Z,15.10
2018-08-03T13:59:33.905Z,11.53
2018-08-03T14:02:13.688Z,12.83
2018-08-03T14:04:42.281Z,11.33
2018-08-03T14:07:10.858Z,10.87
2018-08-03T14:09:39.449Z,11.90
2018-08-03T14:12:08.168Z,10.77
2018-08-03T14:14:36.894Z,10.70
2018-08-03T14:17:05.656Z,11.10
2018-08-03T14:19:36.044Z,11.40
2018-08-03T14:22:05.210Z,9.80
2018-08-03T14:24:34.142Z,11.00
2018-08-03T14:27:03.393Z,10.87
2018-08-03T14:29:32.149Z,11.00
2018-08-03T14:32:00.820Z,10.23
2018-08-03T14:34:29.505Z,10.70
2018-08-03T14:36:58.267Z,10.63
2018-08-03T14:39:26.941Z,11.10
2018-08-03T14:41:55.527Z,9.33
2018-08-03T14:44:24.149Z,11.03
2018-08-03T14:46:52.817Z,11.40
2018-08-03T14:49:21.504Z,9.87
2018-08-03T14:51:50.196Z,10.00
2018-08-03T14:54:19.872Z,10.00
2018-08-03T14:56:48.544Z,11.07
2018-08-03T14:59:17.176Z,11.83
2018-08-03T15:01:45.816Z,10.80
2018-08-03T15:04:14.450Z,8.70
2018-08-03T15:06:42.998Z,9.90
2018-08-03T15:09:12.243Z,10.53
2018-08-03T15:11:40.921Z,13.40
2018-08-03T15:14:09.648Z,10.00
2018-08-03T15:16:38.399Z,11.83
2018-08-03T15:19:07.311Z,13.97
2018-08-03T15:21:35.924Z,10.83
2018-08-03T15:24:04.577Z,10.20
2018-08-03T15:26:33.259Z,10.47
2018-08-03T15:29:01.831Z,10.00
2018-08-03T15:31:30.378Z,10.40
2018-08-03T15:33:59.038Z,10.70
2018-08-03T15:36:27.652Z,10.90
2018-08-03T15:38:56.245Z,10.67
2018-08-03T15:41:25.798Z,11.23
2018-08-03T15:43:54.968Z,10.30
2018-08-03T15:46:23.839Z,10.50
2018-08-03T15:48:52.403Z,10.40
2018-08-03T15:51:20.995Z,10.80
2018-08-03T15:53:49.610Z,10.30
2018-08-03T15:56:18.237Z,10.27
2018-08-03T15:58:46.874Z,9.73
2018-08-03T16:01:15.444Z,10.10
2018-08-03T16:03:44.069Z,9.90
2018-08-03T16:06:12.747Z,9.50
2018-08-03T16:08:41.296Z,10.03
2018-08-03T16:11:09.862Z,9.67
2018-08-03T16:13:38.133Z,11.47
2018-08-03T16:16:06.772Z,9.97
2018-08-03T16:18:35.459Z,10.10
2018-08-03T16:21:04.117Z,9.83
2018-08-03T16:23:32.881Z,10.10
2018-08-03T16:26:01.476Z,9.67
2018-08-03T16:28:30.052Z,10.30
2018-08-03T16:30:58.685Z,11.23
2018-08-03T16:33:27.306Z,10.97
2018-08-03T16:35:56.256Z,13.20
2018-08-03T16:38:24.995Z,10.53
2018-08-03T16:40:55.101Z,10.17
2018-08-03T16:43:23.795Z,11.20
2018-08-03T16:45:55.912Z,9.60
2018-08-03T16:48:24.701Z,9.60
2018-08-03T16:50:53.388Z,10.27
2018-08-03T16:53:22.067Z,9.93
2018-08-03T16:55:51.831Z,10.43
2018-08-03T16:58:20.508Z,10.00
2018-08-03T17:00:49.124Z,9.93
2018-08-03T17:03:17.704Z,10.13
2018-08-03T17:05:46.286Z,9.63
2018-08-03T17:08:15.085Z,9.67
2018-08-03T17:10:43.745Z,9.70
2018-08-03T17:13:13.164Z,10.67
2018-08-03T17:15:41.729Z,10.00
2018-08-03T17:18:10.427Z,10.83
2018-08-03T17:20:39.047Z,11.57
2018-08-03T17:23:07.706Z,10.17
2018-08-03T17:25:36.348Z,10.70
2018-08-03T17:28:05.109Z,12.00
2018-08-03T17:30:33.817Z,11.13
2018-08-03T17:33:03.664Z,10.07
2018-08-03T17:35:31.967Z,11.00
2018-08-03T17:38:00.608Z,11.00
2018-08-03T17:40:29.264Z,10.57
2018-08-03T17:42:57.905Z,10.27
2018-08-03T17:45:26.544Z,11.87
2018-08-03T17:47:55.171Z,12.20
2018-08-03T17:50:23.744Z,10.30
2018-08-03T17:52:52.384Z,11.83
2018-08-03T17:55:20.990Z,11.30
2018-08-03T17:57:49.533Z,11.40
2018-08-03T18:00:18.144Z,11.80
2018-08-03T18:02:46.839Z,12.03
2018-08-03T18:05:16.401Z,12.60
2018-08-03T18:07:44.940Z,12.83
2018-08-03T18:10:13.673Z,13.00
2018-08-03T18:12:42.429Z,14.03
2018-08-03T18:15:11.054Z,17.63
2018-08-03T18:17:39.757Z,19.87
2018-08-03T18:20:08.758Z,25.30
2018-08-03T18:22:38.497Z,23.30
2018-08-03T18:25:07.133Z,20.70
2018-08-03T18:27:35.738Z,27.43
2018-08-03T18:30:05.258Z,26.27
2018-08-03T18:32:33.843Z,29.10
2018-08-03T18:35:02.516Z,22.20
2018-08-03T18:37:31.207Z,14.50
2018-08-03T18:40:00.045Z,14.10
2018-08-03T18:42:29.721Z,12.03
2018-08-03T18:44:58.475Z,12.43
2018-08-03T18:47:27.568Z,11.80
2018-08-03T18:49:56.205Z,12.20
2018-08-03T18:52:24.761Z,11.93
2018-08-03T18:54:53.501Z,12.73
2018-08-03T18:57:22.100Z,12.47
2018-08-03T18:59:50.785Z,12.30
2018-08-03T19:02:19.661Z,12.27
2018-08-03T19:04:48.308Z,12.97
2018-08-03T19:07:16.905Z,12.43
2018-08-03T19:09:45.201Z,12.53
2018-08-03T19:12:13.837Z,12.53
2018-08-03T19:14:42.502Z,12.40
2018-08-03T19:17:11.156Z,16.13
2018-08-03T19:19:39.799Z,16.33
2018-08-03T19:22:08.504Z,13.17
2018-08-03T19:24:37.077Z,12.57
2018-08-03T19:27:05.695Z,11.90
2018-08-03T19:29:35.322Z,14.13
2018-08-03T19:32:03.968Z,12.53
2018-08-03T19:34:32.503Z,12.10
2018-08-03T19:37:01.167Z,15.77
2018-08-03T19:39:29.877Z,12.77
2018-08-03T19:41:58.542Z,12.07
2018-08-03T19:44:27.227Z,12.17
2018-08-03T19:46:55.819Z,12.80
2018-08-03T19:49:24.449Z,12.37
2018-08-03T19:51:53.052Z,11.17
2018-08-03T19:54:21.379Z,12.47
2018-08-03T19:56:50.020Z,11.80
2018-08-03T19:59:18.660Z,10.97
2018-08-03T20:01:47.447Z,11.33
2018-08-03T20:04:16.087Z,11.90
2018-08-03T20:06:44.699Z,13.10
2018-08-03T20:09:13.603Z,12.30
2018-08-03T20:11:42.195Z,12.23
2018-08-03T20:14:10.823Z,14.93
2018-08-03T20:16:39.435Z,12.73
2018-08-03T20:19:08.106Z,12.20
2018-08-03T20:21:37.778Z,11.60
2018-08-03T20:24:06.446Z,13.23
2018-08-03T20:26:35.000Z,12.30
2018-08-03T20:29:03.665Z,13.37
2018-08-03T20:31:32.324Z,12.50
2018-08-03T20:34:00.930Z,12.60
2018-08-03T20:36:29.571Z,13.30
2018-08-03T20:38:58.148Z,14.97
2018-08-03T20:41:26.837Z,13.03
2018-08-03T20:43:55.462Z,14.80
2018-08-03T20:46:24.246Z,12.23
2018-08-03T20:48:52.906Z,14.23
2018-08-03T20:51:21.550Z,13.90
2018-08-03T20:53:50.165Z,14.87
2018-08-03T20:56:18.951Z,13.53
2018-08-03T20:58:47.504Z,14.70
2018-08-03T21:01:16.161Z,12.93
2018-08-03T21:03:44.717Z,12.40
2018-08-03T21:06:13.327Z,14.13
2018-08-03T21:08:41.962Z,14.03
2018-08-03T21:11:10.599Z,12.67
2018-08-03T21:13:39.190Z,12.33
2018-08-03T21:16:07.791Z,14.17
2018-08-03T21:18:36.350Z,14.57
2018-08-03T21:21:04.985Z,13.93
2018-08-03T21:23:33.569Z,14.03
2018-08-03T21:26:02.249Z,12.47
2018-08-03T21:28:30.825Z,13.73
2018-08-03T21:30:59.464Z,12.83
2018-08-03T21:33:28.084Z,13.80
2018-08-03T21:35:56.684Z,12.83
2018-08-03T21:38:25.313Z,13.80
2018-08-03T21:40:54.063Z,17.40
2018-08-03T21:43:22.622Z,13.27
2018-08-03T21:45:51.257Z,13.23
2018-08-03T21:48:19.752Z,13.60
2018-08-03T21:50:48.432Z,15.60
2018-08-03T21:53:17.010Z,16.00
2018-08-03T21:55:45.653Z,13.20
2018-08-03T21:58:14.263Z,13.50
2018-08-03T22:00:42.890Z,13.33
2018-08-03T22:03:11.491Z,14.00
2018-08-03T22:05:40.205Z,13.67
2018-08-03T22:08:08.816Z,16.93
2018-08-03T22:10:37.452Z,14.73
2018-08-03T22:13:06.027Z,14.83
2018-08-03T22:15:34.694Z,16.43
2018-08-03T22:18:03.261Z,13.30
2018-08-03T22:20:31.903Z,15.60
2018-08-03T22:23:00.440Z,13.40
2018-08-03T22:25:29.037Z,14.10
2018-08-03T22:27:57.625Z,13.70
2018-08-03T22:30:26.234Z,14.80
2018-08-03T22:32:54.857Z,13.70
2018-08-03T22:35:23.402Z,14.27
2018-08-03T22:37:55.032Z,14.20
2018-08-03T22:40:23.612Z,13.67
2018-08-03T22:42:52.230Z,13.43
2018-08-03T22:45:20.848Z,14.83
2018-08-03T22:47:49.464Z,14.83
2018-08-03T22:50:18.058Z,14.77
2018-08-03T22:52:46.672Z,13.83
2018-08-03T22:55:15.232Z,14.27
2018-08-03T22:57:43.774Z,14.30
2018-08-03T23:00:12.383Z,14.77
2018-08-03T23:02:41.963Z,15.50
2018-08-03T23:05:10.570Z,16.00
2018-08-03T23:07:39.459Z,15.00
2018-08-03T23:10:08.400Z,15.33
2018-08-03T23:12:37.010Z,14.60
2018-08-03T23:15:06.073Z,13.87
2018-08-03T23:17:34.663Z,16.00
2018-08-03T23:20:03.237Z,15.17
2018-08-03T23:22:31.863Z,15.27
2018-08-03T23:25:00.881Z,15.37
2018-08-03T23:27:29.541Z,16.33
2018-08-03T23:29:58.160Z,16.40
2018-08-03T23:32:26.921Z,19.00
2018-08-03T23:34:55.109Z,17.07
2018-08-03T23:37:23.761Z,17.90
2018-08-03T23:39:52.464Z,18.07
2018-08-03T23:42:21.079Z,15.97
2018-08-03T23:44:49.591Z,18.20
2018-08-03T23:47:18.212Z,16.23
2018-08-03T23:49:46.829Z,16.07
2018-08-03T23:52:15.428Z,16.10
2018-08-03T23:54:44.098Z,17.90
2018-08-03T23:57:12.725Z,16.67
2018-08-03T23:59:41.586Z,19.53
